createdAt,value
2018-11-01T00:02:11.853Z,4.73
2018-11-01T00:07:15.644Z,4.53
2018-11-01T00:12:20.072Z,4.53
2018-11-01T00:17:23.762Z,5.10
2018-11-01T00:22:27.793Z,5.13
2018-11-01T00:27:31.673Z,5.43
2018-11-01T00:32:35.433Z,5.83
2018-11-01T00:37:39.383Z,5.70
2018-11-01T00:42:43.948Z,5.37
2018-11-01T00:47:47.687Z,4.87
2018-11-01T00:52:52.204Z,5.00
2018-11-01T00:57:55.890Z,4.83
2018-11-01T01:02:59.817Z,4.80
2018-11-01T01:08:03.483Z,5.63
2018-11-01T01:13:07.150Z,5.77
2018-11-01T01:18:12.544Z,5.23
2018-11-01T01:23:16.991Z,5.07
2018-11-01T01:28:20.681Z,5.00
2018-11-01T01:33:24.410Z,6.17
2018-11-01T01:38:28.808Z,4.80
2018-11-01T01:43:44.040Z,5.40
2018-11-01T01:48:47.986Z,5.43
2018-11-01T01:53:51.706Z,6.17
2018-11-01T01:58:56.400Z,5.47
2018-11-01T02:04:00.460Z,5.70
2018-11-01T02:09:07.395Z,5.73
2018-11-01T02:14:11.146Z,6.27
2018-11-01T02:19:14.915Z,5.90
2018-11-01T02:24:18.677Z,6.10
2018-11-01T02:29:22.378Z,6.13
2018-11-01T02:34:26.191Z,5.50
2018-11-01T02:39:30.237Z,5.50
2018-11-01T02:44:34.861Z,5.60
2018-11-01T02:49:43.338Z,5.23
2018-11-01T02:54:47.076Z,4.60
2018-11-01T02:59:52.464Z,5.13
2018-11-01T03:04:56.189Z,5.40
2018-11-01T03:10:01.329Z,5.83
2018-11-01T03:15:06.147Z,4.70
2018-11-01T03:20:11.177Z,5.20
2018-11-01T03:25:14.948Z,5.23
2018-11-01T03:30:19.030Z,5.13
2018-11-01T03:35:22.716Z,5.60
2018-11-01T03:40:26.438Z,6.33
2018-11-01T03:45:30.159Z,5.60
2018-11-01T03:50:33.864Z,5.37
2018-11-01T03:55:38.133Z,5.60
2018-11-01T04:00:42.799Z,5.40
2018-11-01T04:05:46.639Z,5.30
2018-11-01T04:10:51.191Z,5.30
2018-11-01T04:15:55.252Z,5.70
2018-11-01T04:20:58.992Z,4.83
2018-11-01T04:26:02.723Z,5.47
2018-11-01T04:31:07.071Z,5.60
2018-11-01T04:36:10.884Z,5.43
2018-11-01T04:41:14.631Z,5.60
2018-11-01T04:46:18.618Z,5.43
2018-11-01T04:51:22.253Z,5.33
2018-11-01T04:56:25.887Z,5.33
2018-11-01T05:01:30.480Z,5.13
2018-11-01T05:06:34.722Z,5.50
2018-11-01T05:11:38.391Z,5.83
2018-11-01T05:16:42.063Z,5.93
2018-11-01T05:21:45.928Z,5.17
2018-11-01T05:26:51.675Z,5.80
2018-11-01T05:31:55.350Z,5.77
2018-11-01T05:36:59.805Z,6.03
2018-11-01T05:42:03.488Z,6.17
2018-11-01T05:47:12.068Z,6.20
2018-11-01T05:52:15.786Z,6.20
2018-11-01T05:57:20.760Z,5.43
2018-11-01T06:02:32.966Z,5.87
2018-11-01T06:07:40.009Z,4.90
2018-11-01T06:12:43.631Z,5.60
2018-11-01T06:17:47.372Z,5.57
2018-11-01T06:22:54.656Z,6.50
2018-11-01T06:27:58.336Z,6.57
2018-11-01T06:33:02.692Z,6.40
2018-11-01T06:38:06.844Z,5.63
2018-11-01T06:43:10.484Z,6.77
2018-11-01T06:48:14.128Z,5.57
2018-11-01T06:53:17.763Z,5.10
2018-11-01T06:58:21.744Z,6.80
2018-11-01T07:03:25.376Z,5.53
2018-11-01T07:08:29.072Z,6.27
2018-11-01T07:13:32.692Z,6.33
2018-11-01T07:18:36.437Z,6.20
2018-11-01T07:23:40.202Z,6.30
2018-11-01T07:28:43.873Z,6.07
2018-11-01T07:33:48.130Z,6.40
2018-11-01T07:38:52.459Z,6.03
2018-11-01T07:43:56.067Z,6.60
2018-11-01T07:48:59.696Z,7.57
2018-11-01T07:54:05.331Z,11.50
2018-11-01T07:59:09.005Z,7.13
2018-11-01T08:04:14.144Z,7.60
2018-11-01T08:09:17.975Z,7.40
2018-11-01T08:14:21.667Z,7.27
2018-11-01T08:19:25.463Z,6.60
2018-11-01T08:24:29.111Z,6.93
2018-11-01T08:29:32.943Z,8.30
2018-11-01T08:34:37.702Z,7.20
2018-11-01T08:39:41.411Z,8.70
2018-11-01T08:44:45.036Z,8.17
2018-11-01T08:49:48.816Z,6.70
2018-11-01T08:54:52.519Z,8.50
2018-11-01T08:59:56.200Z,7.30
2018-11-01T09:05:00.056Z,7.77
2018-11-01T09:10:04.919Z,8.17
2018-11-01T09:15:10.728Z,6.60
2018-11-01T09:20:14.462Z,7.17
2018-11-01T09:25:18.132Z,7.87
2018-11-01T09:30:21.786Z,6.83
2018-11-01T09:35:26.539Z,4.90
2018-11-01T09:40:30.205Z,3.80
2018-11-01T09:45:35.615Z,3.20
2018-11-01T09:50:39.356Z,2.63
2018-11-01T09:55:43.043Z,3.57
2018-11-01T10:00:46.753Z,2.80
2018-11-01T10:05:50.543Z,3.20
2018-11-01T10:10:54.518Z,2.63
2018-11-01T10:15:58.742Z,2.53
2018-11-01T10:21:03.204Z,2.90
2018-11-01T10:26:07.418Z,2.90
2018-11-01T10:31:11.134Z,3.10
2018-11-01T10:36:16.237Z,3.13
2018-11-01T10:41:24.887Z,2.90
2018-11-01T10:46:28.863Z,2.77
2018-11-01T10:51:32.633Z,3.10
2018-11-01T10:56:36.549Z,3.33
2018-11-01T11:01:45.723Z,3.17
2018-11-01T11:06:49.447Z,2.80
2018-11-01T11:11:53.095Z,3.30
2018-11-01T11:16:57.016Z,3.60
2018-11-01T11:22:00.980Z,3.50
2018-11-01T11:27:04.888Z,3.60
2018-11-01T11:32:09.391Z,3.00
2018-11-01T11:37:13.591Z,3.17
2018-11-01T11:42:17.953Z,3.23
2018-11-01T11:47:21.604Z,3.57
2018-11-01T11:52:24.958Z,3.60
2018-11-01T11:57:28.226Z,3.10
2018-11-01T12:02:31.925Z,3.70
2018-11-01T12:07:36.425Z,3.50
2018-11-01T12:12:40.391Z,3.10
2018-11-01T12:17:44.245Z,3.43
2018-11-01T12:22:47.945Z,3.13
2018-11-01T12:27:51.546Z,3.30
2018-11-01T12:32:55.149Z,3.27
2018-11-01T12:37:58.816Z,3.57
2018-11-01T12:43:02.830Z,2.57
2018-11-01T12:48:06.532Z,3.13
2018-11-01T12:53:10.270Z,3.10
2018-11-01T12:58:13.844Z,2.73
2018-11-01T13:03:17.563Z,2.60
2018-11-01T13:08:21.258Z,2.80
2018-11-01T13:13:24.816Z,2.53
2018-11-01T13:18:28.383Z,2.70
2018-11-01T13:23:32.358Z,2.60
2018-11-01T13:28:36.754Z,2.50
2018-11-01T13:33:40.853Z,2.60
2018-11-01T13:38:45.328Z,2.63
2018-11-01T13:43:49.230Z,2.23
2018-11-01T13:48:52.541Z,2.27
2018-11-01T13:53:56.115Z,2.40
2018-11-01T13:58:59.781Z,2.50
2018-11-01T14:04:03.389Z,2.70
2018-11-01T14:09:08.909Z,2.00
2018-11-01T14:14:13.799Z,2.23
2018-11-01T14:19:17.393Z,2.43
2018-11-01T14:24:21.020Z,2.30
2018-11-01T14:29:24.786Z,2.50
2018-11-01T14:34:28.961Z,1.73
2018-11-01T14:39:32.596Z,2.40
2018-11-01T14:44:36.246Z,3.43
2018-11-01T14:49:40.035Z,2.30
2018-11-01T14:54:44.561Z,2.73
2018-11-01T14:59:48.527Z,2.20
2018-11-01T15:04:54.393Z,2.20
2018-11-01T15:09:58.931Z,1.90
2018-11-01T15:15:02.714Z,2.40
2018-11-01T15:20:07.498Z,2.13
2018-11-01T15:25:11.841Z,3.47
2018-11-01T15:30:16.319Z,3.37
2018-11-01T15:35:19.875Z,2.70
2018-11-01T15:40:24.391Z,4.57
2018-11-01T15:45:28.053Z,5.20
2018-11-01T15:50:32.028Z,4.13
2018-11-01T15:55:36.130Z,3.23
2018-11-01T16:00:39.718Z,2.60
2018-11-01T16:05:43.486Z,7.10
2018-11-01T16:10:47.466Z,5.33
2018-11-01T16:15:51.371Z,6.07
2018-11-01T16:20:55.048Z,6.63
2018-11-01T16:25:58.732Z,4.80
2018-11-01T16:31:02.344Z,4.50
2018-11-01T16:36:06.110Z,5.37
2018-11-01T16:41:09.805Z,4.93
2018-11-01T16:46:14.735Z,3.77
2018-11-01T16:51:18.484Z,3.47
2018-11-01T16:56:22.092Z,3.77
2018-11-01T17:01:25.773Z,4.13
2018-11-01T17:06:30.207Z,4.90
2018-11-01T17:11:33.822Z,4.73
2018-11-01T17:16:37.944Z,5.47
2018-11-01T17:21:41.580Z,4.63
2018-11-01T17:26:45.334Z,4.40
2018-11-01T17:31:48.990Z,6.10
2018-11-01T17:36:52.650Z,6.67
2018-11-01T17:41:56.905Z,6.77
2018-11-01T17:47:00.987Z,5.03
2018-11-01T17:52:04.877Z,5.40
2018-11-01T17:57:08.657Z,4.57
2018-11-01T18:02:12.293Z,5.20
2018-11-01T18:07:16.043Z,5.97
2018-11-01T18:12:22.576Z,5.50
2018-11-01T18:17:26.355Z,5.60
2018-11-01T18:22:30.009Z,6.07
2018-11-01T18:27:33.899Z,7.30
2018-11-01T18:32:37.674Z,11.57
2018-11-01T18:37:42.179Z,8.67
2018-11-01T18:42:46.045Z,8.37
2018-11-01T18:47:49.717Z,6.90
2018-11-01T18:52:53.325Z,6.47
2018-11-01T18:57:58.022Z,5.20
2018-11-01T19:03:01.636Z,4.90
2018-11-01T19:08:12.275Z,4.70
2018-11-01T19:13:16.050Z,4.87
2018-11-01T19:18:20.412Z,4.20
2018-11-01T19:23:24.041Z,4.10
2018-11-01T19:28:27.807Z,3.37
2018-11-01T19:33:31.779Z,3.20
2018-11-01T19:38:37.343Z,3.13
2018-11-01T19:43:41.060Z,3.10
2018-11-01T19:48:44.818Z,4.50
2018-11-01T19:53:48.641Z,4.80
2018-11-01T19:58:52.403Z,5.40
2018-11-01T20:03:56.092Z,5.57
2018-11-01T20:09:00.020Z,4.67
2018-11-01T20:14:03.938Z,5.90
2018-11-01T20:19:07.849Z,5.30
2018-11-01T20:24:11.728Z,4.67
2018-11-01T20:29:15.825Z,4.30
2018-11-01T20:34:19.440Z,4.23
2018-11-01T20:39:23.318Z,6.40
2018-11-01T20:44:26.981Z,6.73
2018-11-01T20:49:30.685Z,7.20
2018-11-01T20:54:34.404Z,5.63
2018-11-01T20:59:38.128Z,5.70
2018-11-01T21:04:41.751Z,5.20
2018-11-01T21:09:45.392Z,5.20
2018-11-01T21:14:49.782Z,5.53
2018-11-01T21:19:53.410Z,4.33
2018-11-01T21:24:57.051Z,4.90
2018-11-01T21:30:00.789Z,19.97
2018-11-01T21:35:04.674Z,9.30
2018-11-01T21:40:09.759Z,8.80
2018-11-01T21:45:14.318Z,6.80
2018-11-01T21:50:18.339Z,5.57
2018-11-01T21:55:22.305Z,4.50
2018-11-01T22:00:26.340Z,4.10
2018-11-01T22:05:30.186Z,4.13
2018-11-01T22:10:34.230Z,4.20
2018-11-01T22:15:38.177Z,3.80
2018-11-01T22:20:41.867Z,3.63
2018-11-01T22:25:45.757Z,3.10
2018-11-01T22:30:49.710Z,3.90
2018-11-01T22:35:53.678Z,4.20
2018-11-01T22:40:57.544Z,6.33
2018-11-01T22:46:01.504Z,5.80
2018-11-01T22:51:06.322Z,4.83
2018-11-01T22:56:11.414Z,5.03
2018-11-01T23:01:15.277Z,3.30
2018-11-01T23:06:19.219Z,4.23
2018-11-01T23:11:23.072Z,3.00
2018-11-01T23:16:26.897Z,4.10
2018-11-01T23:21:30.908Z,3.27
2018-11-01T23:26:34.751Z,2.87
2018-11-01T23:31:38.326Z,2.20
2018-11-01T23:36:47.040Z,2.27
2018-11-01T23:41:55.993Z,2.57
2018-11-01T23:47:04.896Z,3.43
2018-11-01T23:52:19.983Z,3.03
2018-11-01T23:57:23.608Z,3.00
